Time;durP1;ratioP1;P1;durP2;ratioP2;P2;SDS_P1;SDS_P2;PMS_P1;PMS_P2;Temp;Humidity;BMP_temperature;BMP_pressure;BME280_temperature;BME280_humidity;BME280_pressure;Samples;Min_cycle;Max_cycle;Signal;HPM_P1;HPM_P2
2021/12/23 00:02:09;;;;;;;19.38;10.40;;;0.70;99.90;;;;;;5017974;28;20212;-78
2021/12/23 00:04:36;;;;;;;13.52;8.43;;;0.60;99.90;;;;;;5029541;28;20594;-79
2021/12/23 00:07:03;;;;;;;14.23;10.05;;;0.70;99.90;;;;;;5035120;28;20205;-79
2021/12/23 00:09:53;;;;;;;11.02;8.32;;;0.60;99.90;;;;;;5031893;28;20205;-77
2021/12/23 00:12:19;;;;;;;14.30;8.80;;;0.70;99.90;;;;;;5023475;28;20220;-77
2021/12/23 00:14:46;;;;;;;14.80;9.85;;;0.70;99.90;;;;;;5035635;28;20197;-79
2021/12/23 00:17:22;;;;;;;13.30;8.73;;;0.70;99.90;;;;;;5036174;28;20301;-76
2021/12/23 00:20:00;;;;;;;12.00;8.55;;;0.80;99.90;;;;;;5035384;28;20230;-77
2021/12/23 00:25:11;;;;;;;12.25;8.80;;;0.80;99.90;;;;;;5029853;28;20718;-78
2021/12/23 00:27:38;;;;;;;13.57;9.82;;;0.80;99.90;;;;;;5027435;28;20249;-78
2021/12/23 00:30:06;;;;;;;14.05;8.90;;;0.90;99.90;;;;;;5035047;28;20208;-78
2021/12/23 00:32:35;;;;;;;13.80;8.23;;;0.90;99.90;;;;;;5035057;28;20737;-77
2021/12/23 00:35:02;;;;;;;10.50;8.02;;;0.90;99.90;;;;;;5035697;28;20655;-77
2021/12/23 00:37:36;;;;;;;13.82;9.23;;;1.00;99.90;;;;;;5035514;28;20206;-78
2021/12/23 00:40:03;;;;;;;13.52;9.40;;;1.00;99.90;;;;;;5036529;28;20299;-78
2021/12/23 00:42:31;;;;;;;13.52;9.05;;;1.10;99.90;;;;;;5035015;28;20275;-77
2021/12/23 00:44:58;;;;;;;13.80;9.23;;;1.10;99.90;;;;;;5037223;28;20228;-77
2021/12/23 00:47:25;;;;;;;14.27;9.07;;;1.20;99.90;;;;;;5035692;28;20463;-77
2021/12/23 00:49:53;;;;;;;15.40;9.50;;;1.20;99.90;;;;;;5036215;28;20206;-77
2021/12/23 00:52:27;;;;;;;14.95;9.43;;;1.30;99.90;;;;;;5034920;28;20237;-77
2021/12/23 00:54:54;;;;;;;16.48;10.25;;;1.40;99.90;;;;;;5035678;28;20213;-78
2021/12/23 00:57:26;;;;;;;16.05;10.45;;;1.40;99.90;;;;;;5035665;28;20212;-77
2021/12/23 00:59:53;;;;;;;13.13;9.25;;;1.50;99.90;;;;;;5020750;28;20242;-77
2021/12/23 01:02:23;;;;;;;13.48;9.27;;;1.40;99.90;;;;;;5029664;28;20232;-78
2021/12/23 01:04:49;;;;;;;14.98;9.27;;;1.40;99.90;;;;;;5035409;28;20202;-78
2021/12/23 01:07:18;;;;;;;12.73;9.48;;;1.40;99.90;;;;;;5034955;28;20208;-77
2021/12/23 01:09:45;;;;;;;14.23;10.70;;;1.40;99.90;;;;;;5035093;28;20212;-77
2021/12/23 01:12:13;;;;;;;14.63;9.70;;;1.40;99.90;;;;;;5034193;28;20217;-77
2021/12/23 01:14:54;;;;;;;15.15;9.60;;;1.40;99.90;;;;;;5034424;28;20647;-77
2021/12/23 01:17:32;;;;;;;15.50;10.77;;;1.50;99.90;;;;;;5032465;28;20320;-79
2021/12/23 01:20:02;;;;;;;15.55;9.25;;;1.50;99.90;;;;;;5032963;28;20740;-79
2021/12/23 01:22:30;;;;;;;14.75;10.43;;;1.50;99.90;;;;;;5034077;28;20324;-78
2021/12/23 01:24:57;;;;;;;16.50;9.63;;;1.50;99.90;;;;;;5034495;28;20220;-79
2021/12/23 01:27:24;;;;;;;13.80;10.00;;;1.60;99.90;;;;;;5034388;28;20470;-77
2021/12/23 01:29:50;;;;;;;18.20;11.15;;;1.60;99.90;;;;;;5042450;28;20202;-79
2021/12/23 01:32:17;;;;;;;14.30;10.55;;;1.50;99.90;;;;;;5043000;28;20224;-78
2021/12/23 01:34:44;;;;;;;16.88;10.07;;;1.50;99.90;;;;;;5014818;28;20232;-78
2021/12/23 01:37:11;;;;;;;16.50;9.23;;;1.50;99.90;;;;;;5033220;28;20205;-79
2021/12/23 01:39:39;;;;;;;17.73;10.20;;;1.60;99.90;;;;;;5034184;28;20459;-79
2021/12/23 01:42:06;;;;;;;16.23;12.10;;;1.50;99.90;;;;;;5033840;28;20671;-78
2021/12/23 01:44:33;;;;;;;16.23;10.45;;;1.50;99.90;;;;;;5035188;28;20224;-80
2021/12/23 01:47:00;;;;;;;14.63;10.40;;;1.60;99.90;;;;;;5034991;28;20319;-80
2021/12/23 01:49:27;;;;;;;17.75;10.65;;;1.60;99.90;;;;;;5033873;28;20198;-79
2021/12/23 01:51:54;;;;;;;15.02;10.90;;;1.60;99.90;;;;;;5034841;28;20216;-80
2021/12/23 01:54:20;;;;;;;16.15;10.98;;;1.60;99.90;;;;;;5034645;28;20213;-79
2021/12/23 01:56:48;;;;;;;15.20;11.68;;;1.60;99.90;;;;;;5035360;28;20584;-78
2021/12/23 01:59:15;;;;;;;18.27;12.30;;;1.50;99.90;;;;;;5034499;28;20198;-79
2021/12/23 02:01:44;;;;;;;14.57;9.07;;;1.50;99.90;;;;;;5034646;28;20206;-80
2021/12/23 02:04:11;;;;;;;14.45;10.35;;;1.50;99.90;;;;;;5033152;28;20226;-78
2021/12/23 02:06:38;;;;;;;15.50;10.55;;;1.40;99.90;;;;;;5035045;28;20228;-79
2021/12/23 02:09:05;;;;;;;19.45;10.85;;;1.30;99.90;;;;;;5034421;28;20205;-80
2021/12/23 02:11:32;;;;;;;16.20;10.87;;;1.20;99.90;;;;;;5033900;28;20760;-78
2021/12/23 02:14:00;;;;;;;18.23;10.30;;;1.20;99.90;;;;;;5031883;28;20507;-80
2021/12/23 02:16:27;;;;;;;17.40;12.10;;;1.20;99.90;;;;;;5014555;28;20210;-79
2021/12/23 02:18:54;;;;;;;15.40;10.75;;;1.10;99.90;;;;;;5014634;28;20210;-79
2021/12/23 02:21:22;;;;;;;14.80;10.00;;;1.10;99.90;;;;;;5021870;28;20212;-80
2021/12/23 02:23:49;;;;;;;17.77;10.23;;;1.10;99.90;;;;;;5034090;28;20225;-79
2021/12/23 02:26:16;;;;;;;15.00;11.05;;;1.10;99.90;;;;;;5034578;28;20221;-79
2021/12/23 02:28:43;;;;;;;15.82;11.43;;;1.10;99.90;;;;;;5032556;28;20649;-80
2021/12/23 02:31:10;;;;;;;17.88;11.27;;;1.10;99.90;;;;;;5033500;28;20686;-79
2021/12/23 02:33:37;;;;;;;17.08;11.10;;;1.10;99.90;;;;;;5034534;28;20228;-78
2021/12/23 02:36:04;;;;;;;16.00;10.20;;;1.10;99.90;;;;;;5034014;28;20231;-80
2021/12/23 02:38:32;;;;;;;18.75;10.98;;;1.10;99.90;;;;;;5034252;28;20213;-80
2021/12/23 02:40:59;;;;;;;17.10;10.75;;;1.10;99.90;;;;;;5033132;28;20203;-80
2021/12/23 02:43:29;;;;;;;17.85;11.70;;;1.10;99.90;;;;;;5033866;28;20806;-80
2021/12/23 02:45:58;;;;;;;16.85;11.68;;;1.10;99.90;;;;;;5032983;28;20251;-79
2021/12/23 02:48:29;;;;;;;15.35;10.98;;;1.20;99.90;;;;;;5033746;28;20210;-79
2021/12/23 02:50:57;;;;;;;15.57;11.35;;;1.20;99.90;;;;;;5033593;28;20208;-79
2021/12/23 02:53:24;;;;;;;15.20;10.88;;;1.30;99.90;;;;;;5034176;28;20239;-79
2021/12/23 02:55:54;;;;;;;16.48;11.00;;;1.30;99.90;;;;;;5034159;28;20194;-79
2021/12/23 02:58:21;;;;;;;15.85;10.40;;;1.30;99.90;;;;;;5034402;28;20206;-79
2021/12/23 03:00:51;;;;;;;15.77;10.10;;;1.40;99.90;;;;;;5032328;28;20206;-79
2021/12/23 03:03:18;;;;;;;21.27;13.02;;;1.40;99.90;;;;;;5013977;28;20234;-77
2021/12/23 03:05:48;;;;;;;18.07;12.70;;;1.40;99.90;;;;;;5028294;28;20226;-78
2021/12/23 03:08:14;;;;;;;17.08;11.13;;;1.50;99.90;;;;;;5033786;28;20483;-79
2021/12/23 03:10:41;;;;;;;13.70;10.25;;;1.50;99.90;;;;;;5032661;28;20205;-78
2021/12/23 03:13:09;;;;;;;18.42;12.32;;;1.50;99.90;;;;;;5032885;28;20220;-79
2021/12/23 03:15:36;;;;;;;17.33;11.15;;;1.50;99.90;;;;;;5033224;28;20220;-78
2021/12/23 03:18:03;;;;;;;16.90;11.68;;;1.60;99.90;;;;;;5028213;28;20576;-78
2021/12/23 03:20:30;;;;;;;16.23;12.00;;;1.60;99.90;;;;;;5034033;28;20206;-77
2021/12/23 03:22:57;;;;;;;19.08;10.38;;;1.60;99.90;;;;;;5032896;28;20230;-77
2021/12/23 03:25:24;;;;;;;17.02;12.25;;;1.60;99.90;;;;;;5033219;28;20202;-78
2021/12/23 03:27:51;;;;;;;16.25;11.68;;;1.70;99.90;;;;;;5032759;28;20213;-77
2021/12/23 03:30:19;;;;;;;17.02;10.63;;;1.60;99.90;;;;;;5032375;28;20699;-78
2021/12/23 03:32:45;;;;;;;17.08;11.35;;;1.70;99.90;;;;;;5032495;28;20232;-78
2021/12/23 03:35:12;;;;;;;20.50;13.07;;;1.80;99.90;;;;;;5026723;28;20202;-78
2021/12/23 03:37:39;;;;;;;20.70;11.40;;;1.70;99.90;;;;;;5033464;28;20211;-78
2021/12/23 03:40:07;;;;;;;18.33;11.75;;;1.80;99.90;;;;;;5035102;28;20206;-80
2021/12/23 03:42:34;;;;;;;15.55;10.65;;;1.80;99.90;;;;;;5037296;28;20224;-79
2021/12/23 03:45:01;;;;;;;17.92;12.75;;;1.80;99.90;;;;;;5037395;28;20220;-79
2021/12/23 03:47:29;;;;;;;17.77;12.07;;;1.80;99.90;;;;;;5036840;28;20233;-78
2021/12/23 03:49:56;;;;;;;17.10;12.27;;;1.80;99.90;;;;;;5037336;28;20205;-78
2021/12/23 03:52:23;;;;;;;18.23;11.65;;;1.70;99.90;;;;;;5035460;28;20224;-79
2021/12/23 03:54:49;;;;;;;17.23;11.60;;;1.60;99.90;;;;;;5036853;28;20201;-78
2021/12/23 03:57:16;;;;;;;17.35;12.48;;;1.60;99.90;;;;;;5036865;28;20190;-79
2021/12/23 03:59:43;;;;;;;18.52;11.88;;;1.60;99.90;;;;;;5036691;28;20216;-79
2021/12/23 04:02:10;;;;;;;21.33;11.82;;;1.60;99.90;;;;;;5036805;28;20213;-78
2021/12/23 04:04:39;;;;;;;16.27;12.27;;;1.50;99.90;;;;;;5036995;28;20208;-78
2021/12/23 04:07:06;;;;;;;18.45;12.45;;;1.30;99.90;;;;;;5034063;28;20227;-79
2021/12/23 04:09:32;;;;;;;18.00;11.65;;;1.20;99.90;;;;;;5035999;28;20684;-78
2021/12/23 04:12:00;;;;;;;17.45;10.43;;;1.10;99.90;;;;;;5036063;28;20550;-78
2021/12/23 04:14:26;;;;;;;18.45;12.43;;;1.00;99.90;;;;;;5036765;28;20217;-78
2021/12/23 04:16:53;;;;;;;19.77;12.55;;;0.90;99.90;;;;;;5021148;28;20204;-79
2021/12/23 04:19:20;;;;;;;16.98;11.73;;;0.90;99.90;;;;;;5020245;28;20199;-78
2021/12/23 04:21:48;;;;;;;19.40;12.90;;;0.80;99.90;;;;;;5036667;28;20650;-79
2021/12/23 04:24:15;;;;;;;20.95;12.95;;;0.70;99.90;;;;;;5029432;28;20232;-78
2021/12/23 04:26:42;;;;;;;17.10;11.80;;;0.60;99.90;;;;;;5036136;28;20214;-78
2021/12/23 04:29:09;;;;;;;19.10;12.15;;;0.60;99.90;;;;;;5036142;28;20205;-79
2021/12/23 04:31:36;;;;;;;17.33;11.75;;;0.60;99.90;;;;;;5035381;28;20678;-79
2021/12/23 04:34:03;;;;;;;17.50;12.32;;;0.50;99.90;;;;;;5035485;28;20235;-79
2021/12/23 04:36:30;;;;;;;16.55;12.07;;;0.50;99.90;;;;;;5036074;28;20207;-78
2021/12/23 04:38:59;;;;;;;21.10;13.40;;;0.40;99.90;;;;;;5036027;28;20266;-79
2021/12/23 04:41:27;;;;;;;18.88;12.55;;;0.40;99.90;;;;;;5034342;28;20214;-79
2021/12/23 04:43:54;;;;;;;18.10;13.35;;;0.30;99.90;;;;;;5035813;28;20232;-80
2021/12/23 04:46:21;;;;;;;21.83;12.65;;;0.30;99.90;;;;;;5035699;28;20727;-77
2021/12/23 04:48:48;;;;;;;19.95;12.90;;;0.30;99.90;;;;;;5036107;28;20218;-79
2021/12/23 04:51:15;;;;;;;17.10;11.65;;;0.20;99.90;;;;;;5034630;28;20212;-79
2021/12/23 04:53:44;;;;;;;19.45;13.40;;;0.20;99.90;;;;;;5036033;28;20228;-78
2021/12/23 04:56:12;;;;;;;19.15;12.30;;;0.10;99.90;;;;;;5031280;28;20213;-79
2021/12/23 04:58:40;;;;;;;20.38;13.32;;;0.20;99.90;;;;;;5016170;28;20228;-79
2021/12/23 05:01:08;;;;;;;17.75;12.13;;;0.20;99.90;;;;;;5034790;28;20699;-79
2021/12/23 05:03:36;;;;;;;21.17;14.63;;;0.10;99.90;;;;;;5035680;28;20247;-79
2021/12/23 05:06:03;;;;;;;22.73;13.30;;;0.00;99.90;;;;;;5035378;28;20208;-78
2021/12/23 05:08:29;;;;;;;23.95;14.55;;;0.00;99.90;;;;;;5036052;28;20208;-79
2021/12/23 05:10:56;;;;;;;20.50;13.18;;;-0.10;99.90;;;;;;5034449;28;20206;-79
2021/12/23 05:13:24;;;;;;;20.60;13.52;;;0.00;99.90;;;;;;5033851;28;20228;-78
2021/12/23 05:15:51;;;;;;;20.70;13.60;;;0.00;99.90;;;;;;5036859;28;20202;-78
2021/12/23 05:18:18;;;;;;;22.33;13.82;;;-0.10;99.90;;;;;;5035053;28;20209;-78
2021/12/23 05:20:45;;;;;;;22.38;15.60;;;-0.10;99.90;;;;;;5035062;28;20222;-78
2021/12/23 05:23:12;;;;;;;20.58;12.32;;;0.00;99.90;;;;;;5034858;28;20255;-78
2021/12/23 05:25:38;;;;;;;26.02;14.75;;;-0.10;99.90;;;;;;5035822;28;20207;-78
2021/12/23 05:28:05;;;;;;;19.10;13.23;;;-0.10;99.90;;;;;;5035549;28;20232;-78
2021/12/23 05:30:33;;;;;;;22.38;13.93;;;-0.10;99.90;;;;;;5023090;28;20205;-78
2021/12/23 05:33:00;;;;;;;24.92;15.73;;;-0.10;99.90;;;;;;5024801;28;20227;-78
2021/12/23 05:35:27;;;;;;;28.05;16.58;;;0.00;99.90;;;;;;5034772;28;20201;-77
2021/12/23 05:37:54;;;;;;;24.05;14.63;;;0.00;99.90;;;;;;5035288;28;20207;-78
2021/12/23 05:40:28;;;;;;;23.08;15.07;;;0.00;99.90;;;;;;5035296;28;20662;-79
2021/12/23 05:42:56;;;;;;;25.13;15.30;;;0.10;99.90;;;;;;5046461;28;20221;-80
2021/12/23 05:45:23;;;;;;;18.98;12.75;;;0.20;99.90;;;;;;5036144;28;20195;-78
2021/12/23 05:47:51;;;;;;;26.15;14.27;;;0.30;99.90;;;;;;5037698;28;20311;-78
2021/12/23 05:50:20;;;;;;;22.23;15.45;;;0.40;99.90;;;;;;5040710;28;20210;-79
2021/12/23 05:52:47;;;;;;;19.38;12.90;;;0.60;99.90;;;;;;5040943;28;20235;-79
2021/12/23 05:55:15;;;;;;;23.20;14.65;;;0.70;99.90;;;;;;5040810;28;20209;-78
2021/12/23 05:57:43;;;;;;;21.73;15.57;;;0.80;99.90;;;;;;5038955;28;20198;-77
2021/12/23 06:00:13;;;;;;;18.80;13.80;;;0.90;99.90;;;;;;5034067;28;20209;-77
2021/12/23 06:02:39;;;;;;;23.30;14.65;;;1.00;99.90;;;;;;5034688;28;20620;-78
2021/12/23 06:05:09;;;;;;;23.65;15.20;;;1.10;99.90;;;;;;5026960;28;20223;-79
2021/12/23 06:07:36;;;;;;;22.92;15.02;;;1.20;99.90;;;;;;5037670;28;20717;-78
2021/12/23 06:10:03;;;;;;;19.83;12.27;;;1.30;99.90;;;;;;5039190;28;20219;-79
2021/12/23 06:12:30;;;;;;;20.15;13.15;;;1.30;99.90;;;;;;5036831;28;20236;-78
2021/12/23 06:14:57;;;;;;;19.38;12.85;;;1.40;99.90;;;;;;5037055;28;20271;-77
2021/12/23 06:17:24;;;;;;;20.13;13.02;;;1.50;99.90;;;;;;5037718;28;20202;-79
2021/12/23 06:19:51;;;;;;;20.33;13.20;;;1.50;99.90;;;;;;5038301;28;20580;-78
2021/12/23 06:22:19;;;;;;;24.30;14.10;;;1.50;99.90;;;;;;5037429;28;20218;-78
2021/12/23 06:24:48;;;;;;;21.00;12.87;;;1.60;99.90;;;;;;5038398;28;20996;-79
2021/12/23 06:27:16;;;;;;;23.13;13.30;;;1.60;99.90;;;;;;5038667;28;20508;-78
2021/12/23 06:29:43;;;;;;;23.85;14.32;;;1.70;99.90;;;;;;5038161;28;20198;-78
2021/12/23 06:32:10;;;;;;;22.05;15.15;;;1.70;99.90;;;;;;5039480;28;20210;-78
2021/12/23 06:34:37;;;;;;;25.60;14.63;;;1.70;99.90;;;;;;5040248;28;20565;-79
2021/12/23 06:37:04;;;;;;;24.55;14.60;;;1.70;99.90;;;;;;5029879;28;20202;-79
2021/12/23 06:39:33;;;;;;;20.70;13.43;;;1.70;99.90;;;;;;5023492;28;20206;-79
2021/12/23 06:42:00;;;;;;;17.63;12.70;;;1.80;99.90;;;;;;5019903;28;20217;-78
2021/12/23 06:44:27;;;;;;;22.52;14.43;;;1.80;99.90;;;;;;5036730;28;20201;-79
2021/12/23 06:46:54;;;;;;;21.42;12.98;;;1.80;99.90;;;;;;5039707;28;20229;-79
2021/12/23 06:49:21;;;;;;;17.48;12.43;;;1.90;99.90;;;;;;5039214;28;20206;-79
2021/12/23 06:51:48;;;;;;;21.92;14.23;;;1.80;99.90;;;;;;5034692;28;20237;-78
2021/12/23 06:54:16;;;;;;;20.90;15.10;;;1.80;99.90;;;;;;5034643;28;20234;-79
2021/12/23 06:56:46;;;;;;;23.05;13.35;;;1.80;99.90;;;;;;5038979;28;20269;-81
2021/12/23 06:59:15;;;;;;;20.02;14.63;;;1.70;99.90;;;;;;5039023;28;20705;-79
2021/12/23 07:01:42;;;;;;;19.85;13.60;;;1.70;99.90;;;;;;5036123;28;20236;-79
2021/12/23 07:04:14;;;;;;;23.23;16.02;;;1.70;99.90;;;;;;5036189;28;20244;-79
2021/12/23 07:06:46;;;;;;;25.15;14.80;;;1.70;99.90;;;;;;5035548;28;20209;-79
2021/12/23 07:09:14;;;;;;;18.48;12.90;;;1.60;99.90;;;;;;5035936;28;20206;-79
2021/12/23 07:11:41;;;;;;;21.73;13.80;;;1.60;99.90;;;;;;5017596;28;20271;-79
2021/12/23 07:14:09;;;;;;;22.87;14.90;;;1.60;99.90;;;;;;5016302;28;20618;-79
2021/12/23 07:16:38;;;;;;;23.55;14.23;;;1.60;99.90;;;;;;5016076;28;20449;-79
2021/12/23 07:19:05;;;;;;;22.63;15.45;;;1.60;99.90;;;;;;5016562;28;20302;-79
2021/12/23 07:21:32;;;;;;;20.88;14.52;;;1.60;99.90;;;;;;5015324;28;20226;-79
2021/12/23 07:24:00;;;;;;;24.77;15.73;;;1.60;99.90;;;;;;5015699;28;20321;-79
2021/12/23 07:26:27;;;;;;;22.88;15.95;;;1.70;99.90;;;;;;5015792;28;20285;-78
2021/12/23 07:28:53;;;;;;;21.85;15.93;;;1.70;99.90;;;;;;5015657;28;20236;-79
2021/12/23 07:31:22;;;;;;;26.10;15.38;;;1.70;99.90;;;;;;5015242;28;20296;-79
2021/12/23 07:33:48;;;;;;;18.20;14.35;;;1.70;99.90;;;;;;5016011;28;20317;-79
2021/12/23 07:36:17;;;;;;;26.77;16.23;;;1.70;99.90;;;;;;5015927;28;20214;-78
2021/12/23 07:38:44;;;;;;;20.53;13.87;;;1.60;99.90;;;;;;5017390;28;20206;-79
2021/12/23 07:41:11;;;;;;;22.50;15.33;;;1.70;99.90;;;;;;5019347;28;20471;-79
2021/12/23 07:43:56;;;;;;;24.45;16.88;;;1.70;99.90;;;;;;5036683;28;20480;-79
2021/12/23 07:46:24;;;;;;;25.17;15.00;;;1.70;99.90;;;;;;5019274;28;20275;-79
2021/12/23 07:48:52;;;;;;;24.50;14.63;;;1.60;99.90;;;;;;5036104;28;20228;-78
2021/12/23 07:51:19;;;;;;;22.65;13.50;;;1.60;99.90;;;;;;5038618;28;20572;-78
2021/12/23 07:53:46;;;;;;;18.20;13.23;;;1.60;99.90;;;;;;5035829;28;20226;-80
2021/12/23 07:56:13;;;;;;;23.05;14.00;;;1.60;99.90;;;;;;5025915;28;20211;-78
2021/12/23 07:58:40;;;;;;;18.65;13.50;;;1.60;99.90;;;;;;5037957;28;20198;-80
2021/12/23 08:01:07;;;;;;;22.67;15.73;;;1.70;99.90;;;;;;5041314;28;20224;-79
2021/12/23 08:03:35;;;;;;;21.55;14.68;;;1.70;99.90;;;;;;5036342;28;20232;-79
2021/12/23 08:06:02;;;;;;;23.95;15.15;;;1.70;99.90;;;;;;5037793;28;20212;-79
2021/12/23 08:08:29;;;;;;;23.60;15.05;;;1.80;99.90;;;;;;5037304;28;20221;-79
2021/12/23 08:10:56;;;;;;;21.73;15.10;;;1.80;99.90;;;;;;5035306;28;20242;-79
2021/12/23 08:13:24;;;;;;;23.83;15.25;;;1.90;99.90;;;;;;5033936;28;20472;-79
2021/12/23 08:15:51;;;;;;;19.23;13.80;;;2.00;99.90;;;;;;5022860;28;20207;-78
2021/12/23 08:18:18;;;;;;;22.02;15.15;;;2.00;99.90;;;;;;5025522;28;20195;-79
2021/12/23 08:20:46;;;;;;;23.00;15.20;;;2.10;99.90;;;;;;5023110;28;20226;-77
2021/12/23 08:23:13;;;;;;;25.60;15.47;;;2.20;99.90;;;;;;5027360;28;20290;-78
2021/12/23 08:25:40;;;;;;;21.17;14.20;;;2.30;99.90;;;;;;5024862;28;20532;-79
2021/12/23 08:28:07;;;;;;;23.80;15.75;;;2.40;99.90;;;;;;5030900;28;20492;-79
2021/12/23 08:30:35;;;;;;;24.05;15.20;;;2.30;99.90;;;;;;5036980;28;20289;-78
2021/12/23 08:33:01;;;;;;;21.57;15.13;;;2.40;99.90;;;;;;5039843;28;20237;-77
2021/12/23 08:35:28;;;;;;;22.63;16.13;;;2.40;99.90;;;;;;5038518;28;20944;-79
2021/12/23 08:37:57;;;;;;;20.87;14.40;;;2.50;99.90;;;;;;5031874;28;20448;-79
2021/12/23 08:40:25;;;;;;;25.02;14.88;;;2.50;99.90;;;;;;5030733;28;20521;-77
2021/12/23 08:42:53;;;;;;;21.40;13.40;;;2.60;99.90;;;;;;5029910;28;20219;-78
2021/12/23 08:45:21;;;;;;;23.07;15.43;;;2.70;99.90;;;;;;5028510;28;20463;-78
2021/12/23 08:47:48;;;;;;;26.97;16.93;;;2.70;99.90;;;;;;5028437;28;20481;-78
2021/12/23 08:50:17;;;;;;;20.20;12.57;;;2.70;99.90;;;;;;5028947;28;20453;-78
2021/12/23 08:52:44;;;;;;;18.73;12.83;;;2.70;99.90;;;;;;5031114;28;20479;-79
2021/12/23 08:55:13;;;;;;;21.80;14.93;;;2.80;99.90;;;;;;5032606;28;20464;-78
2021/12/23 08:57:40;;;;;;;23.90;15.83;;;2.90;99.90;;;;;;5036214;28;20949;-79
2021/12/23 09:00:11;;;;;;;19.60;13.60;;;2.80;99.90;;;;;;5036602;28;20461;-78
2021/12/23 09:02:38;;;;;;;23.63;14.00;;;2.90;99.90;;;;;;5035675;28;20481;-78
2021/12/23 09:05:07;;;;;;;18.60;13.63;;;3.00;99.90;;;;;;5026864;28;20465;-79
2021/12/23 09:07:34;;;;;;;17.70;13.10;;;3.10;99.90;;;;;;5036724;28;20493;-79
2021/12/23 09:10:01;;;;;;;18.33;12.20;;;3.10;99.90;;;;;;5038112;28;20473;-78
2021/12/23 09:12:29;;;;;;;20.20;13.70;;;3.20;99.90;;;;;;5036507;28;20976;-79
2021/12/23 09:14:55;;;;;;;20.83;14.47;;;3.30;99.90;;;;;;5036121;28;21000;-79
2021/12/23 09:17:22;;;;;;;22.40;13.37;;;3.40;99.90;;;;;;5036529;28;20457;-79
2021/12/23 09:19:49;;;;;;;17.80;12.10;;;3.50;99.90;;;;;;5036462;28;20453;-79
2021/12/23 09:22:16;;;;;;;22.63;13.40;;;3.60;99.90;;;;;;5036278;28;20979;-79
2021/12/23 09:24:46;;;;;;;20.63;14.07;;;3.60;99.90;;;;;;5036225;28;20461;-79
2021/12/23 09:27:23;;;;;;;21.80;13.57;;;3.70;99.90;;;;;;5035316;28;20533;-79
2021/12/23 09:35:28;;;;;;;23.27;13.50;;;4.10;99.90;;;;;;5032549;28;20837;-79
2021/12/23 09:37:55;;;;;;;20.00;13.17;;;4.00;99.90;;;;;;5034857;28;20456;-79
2021/12/23 09:40:23;;;;;;;23.03;15.00;;;4.20;99.90;;;;;;5035718;28;20454;-79
2021/12/23 09:42:52;;;;;;;20.83;13.23;;;4.30;99.90;;;;;;5027997;28;20489;-79
2021/12/23 09:45:20;;;;;;;18.10;11.70;;;4.40;99.90;;;;;;5035380;28;20456;-80
2021/12/23 09:47:49;;;;;;;19.40;12.67;;;4.50;99.90;;;;;;5035933;28;20559;-80
2021/12/23 09:50:19;;;;;;;16.83;12.30;;;4.50;99.90;;;;;;5036619;28;20548;-79
2021/12/23 09:52:49;;;;;;;21.07;12.70;;;4.70;99.90;;;;;;5038188;28;20560;-80
2021/12/23 09:55:18;;;;;;;21.17;14.70;;;4.70;99.90;;;;;;5020872;28;20897;-80
2021/12/23 09:57:46;;;;;;;19.07;12.77;;;4.50;99.90;;;;;;5033524;28;20911;-79
2021/12/23 10:00:15;;;;;;;18.60;12.60;;;4.50;99.90;;;;;;5042107;28;20457;-79
2021/12/23 10:02:44;;;;;;;18.63;12.00;;;4.60;99.90;;;;;;5035487;28;20480;-80
2021/12/23 10:05:14;;;;;;;22.03;13.00;;;4.70;99.90;;;;;;5033838;28;20857;-80
2021/12/23 10:07:44;;;;;;;16.30;11.80;;;4.70;99.90;;;;;;5037855;28;20512;-80
2021/12/23 10:10:15;;;;;;;20.00;11.93;;;4.70;99.90;;;;;;5041522;28;20813;-80
2021/12/23 10:27:32;;;;;;;16.80;10.73;;;5.10;99.90;;;;;;5046417;28;20499;-79
2021/12/23 10:38:29;;;;;;;15.00;10.10;;;5.60;99.90;;;;;;5033277;28;20523;-81
2021/12/23 10:40:58;;;;;;;16.80;11.33;;;5.70;99.90;;;;;;5032093;28;20477;-81
2021/12/23 10:43:30;;;;;;;16.10;10.47;;;5.70;99.90;;;;;;5032015;28;20538;-81
2021/12/23 10:46:01;;;;;;;17.70;11.13;;;5.70;99.90;;;;;;5031428;28;20443;-80
2021/12/23 10:48:32;;;;;;;15.73;9.83;;;5.80;99.90;;;;;;5038078;28;20574;-81
2021/12/23 10:51:05;;;;;;;19.50;10.30;;;5.90;99.90;;;;;;5036869;28;20457;-81
2021/12/23 10:53:53;;;;;;;15.60;9.63;;;5.80;99.90;;;;;;5036767;28;20483;-82
2021/12/23 10:59:12;;;;;;;17.53;10.43;;;5.80;99.90;;;;;;5039034;28;20467;-80
2021/12/23 11:02:05;;;;;;;13.50;8.80;;;6.00;99.90;;;;;;5038195;28;20452;-82
2021/12/23 11:04:37;;;;;;;14.60;9.90;;;6.00;99.90;;;;;;5041411;28;20475;-80
2021/12/23 11:07:15;;;;;;;15.27;9.73;;;6.10;99.90;;;;;;5046018;28;20532;-81
2021/12/23 11:10:10;;;;;;;18.30;10.40;;;6.20;99.90;;;;;;5029897;28;20494;-81
2021/12/23 11:37:56;;;;;;;13.80;9.50;;;7.10;99.90;;;;;;5034787;28;20442;-81
2021/12/23 11:40:50;;;;;;;20.27;10.60;;;7.10;99.90;;;;;;5032611;28;20787;-78
2021/12/23 11:43:47;;;;;;;14.77;8.87;;;7.10;99.90;;;;;;5041078;28;20474;-82
2021/12/23 11:46:16;;;;;;;19.03;9.73;;;7.00;99.90;;;;;;5044295;28;20449;-80
2021/12/23 11:48:46;;;;;;;14.10;8.60;;;7.00;99.90;;;;;;5059390;28;20486;-82
2021/12/23 11:51:19;;;;;;;17.37;10.00;;;7.10;99.90;;;;;;5060199;28;20866;-80
2021/12/23 11:53:48;;;;;;;12.93;8.93;;;7.20;99.90;;;;;;5058831;28;20499;-82
2021/12/23 11:56:18;;;;;;;14.13;8.17;;;7.20;99.90;;;;;;5040394;28;20604;-83
2021/12/23 11:58:47;;;;;;;13.27;8.97;;;7.40;99.90;;;;;;5036236;28;20584;-82
2021/12/23 12:01:20;;;;;;;17.37;10.93;;;7.30;99.90;;;;;;5056876;28;20509;-82
2021/12/23 12:03:55;;;;;;;14.30;8.73;;;7.30;99.90;;;;;;5044577;28;20483;-83
2021/12/23 12:06:24;;;;;;;13.80;9.10;;;7.40;99.90;;;;;;5041918;28;20879;-83
2021/12/23 12:08:55;;;;;;;15.57;8.80;;;7.50;99.90;;;;;;5054312;28;20620;-83
2021/12/23 12:11:26;;;;;;;15.30;9.83;;;7.60;99.90;;;;;;5063236;28;20447;-82
2021/12/23 12:13:53;;;;;;;11.40;8.40;;;7.60;99.90;;;;;;5054752;28;20476;-82
2021/12/23 12:16:29;;;;;;;15.67;9.97;;;7.70;99.90;;;;;;5044526;28;20494;-82
2021/12/23 12:18:56;;;;;;;15.67;9.77;;;7.90;99.90;;;;;;5043213;28;20499;-81
2021/12/23 12:21:25;;;;;;;14.23;10.23;;;7.70;99.90;;;;;;5052870;28;20439;-82
2021/12/23 12:24:09;;;;;;;15.43;9.87;;;7.70;99.90;;;;;;5050572;28;20614;-81
2021/12/23 12:26:51;;;;;;;17.57;9.93;;;7.80;99.90;;;;;;5050987;28;20844;-82
2021/12/23 12:29:21;;;;;;;16.00;10.80;;;7.70;99.90;;;;;;5048593;28;20488;-81
2021/12/23 12:31:48;;;;;;;15.63;10.33;;;7.50;99.90;;;;;;5048825;28;20887;-81
2021/12/23 12:34:19;;;;;;;14.20;9.37;;;7.50;99.90;;;;;;5051878;28;20471;-82
2021/12/23 12:36:49;;;;;;;15.63;9.77;;;7.50;99.90;;;;;;5044455;28;20456;-82
2021/12/23 12:39:24;;;;;;;14.20;9.03;;;7.40;99.90;;;;;;5048835;28;20458;-81
2021/12/23 12:42:00;;;;;;;19.30;11.43;;;7.50;99.90;;;;;;5050392;28;20453;-82
2021/12/23 12:44:41;;;;;;;14.37;10.00;;;7.40;99.90;;;;;;5046059;28;20461;-81
2021/12/23 12:47:32;;;;;;;14.37;9.60;;;7.30;99.90;;;;;;5048886;28;20452;-82
2021/12/23 12:50:11;;;;;;;15.10;9.00;;;7.30;99.90;;;;;;5045608;28;20491;-81
2021/12/23 12:52:41;;;;;;;16.50;9.50;;;7.40;99.90;;;;;;5045656;28;20530;-80
2021/12/23 12:55:10;;;;;;;15.23;9.50;;;7.50;99.90;;;;;;5049798;28;20449;-80
2021/12/23 12:57:41;;;;;;;13.67;9.60;;;7.50;99.90;;;;;;5043837;28;20516;-81
2021/12/23 13:00:19;;;;;;;16.03;9.90;;;7.40;99.90;;;;;;5046400;28;20447;-82
2021/12/23 13:02:51;;;;;;;15.40;9.47;;;7.40;99.90;;;;;;5048514;28;20514;-82
2021/12/23 13:05:26;;;;;;;17.43;9.87;;;7.50;99.90;;;;;;5045862;28;20503;-81
2021/12/23 13:07:54;;;;;;;14.03;9.57;;;7.50;99.90;;;;;;5056073;28;20530;-82
2021/12/23 13:10:29;;;;;;;13.83;8.90;;;7.40;99.90;;;;;;5050658;28;20511;-81
2021/12/23 13:13:00;;;;;;;15.80;10.63;;;7.40;99.90;;;;;;5054949;28;20467;-81
2021/12/23 13:15:31;;;;;;;19.30;11.47;;;7.30;99.90;;;;;;5045224;28;20483;-78
2021/12/23 13:18:01;;;;;;;17.57;10.50;;;7.20;99.90;;;;;;5041267;28;20459;-78
2021/12/23 13:20:34;;;;;;;15.70;10.30;;;7.20;99.90;;;;;;5026079;28;20499;-81
2021/12/23 13:23:02;;;;;;;17.93;11.33;;;7.10;99.90;;;;;;5025862;28;20477;-77
2021/12/23 13:25:30;;;;;;;15.17;10.00;;;7.10;99.90;;;;;;5047477;28;20432;-80
2021/12/23 13:28:00;;;;;;;14.77;9.00;;;7.20;99.90;;;;;;5049853;28;20460;-80
2021/12/23 13:30:27;;;;;;;20.33;10.10;;;7.30;99.90;;;;;;5046874;28;20482;-81
2021/12/23 13:32:58;;;;;;;12.43;9.57;;;7.20;99.90;;;;;;5046569;28;20479;-80
2021/12/23 13:35:26;;;;;;;16.70;10.47;;;7.30;99.90;;;;;;5033030;28;20488;-81
2021/12/23 13:37:52;;;;;;;14.97;9.50;;;7.20;99.90;;;;;;5047123;28;20487;-81
2021/12/23 13:40:30;;;;;;;13.37;9.40;;;7.30;99.90;;;;;;5045234;28;20488;-85
2021/12/23 13:42:59;;;;;;;13.70;10.00;;;7.40;99.90;;;;;;5044243;28;20484;-81
2021/12/23 13:45:26;;;;;;;16.13;9.20;;;7.50;99.90;;;;;;5029577;28;20470;-82
2021/12/23 13:47:54;;;;;;;15.87;10.03;;;7.70;99.90;;;;;;5038007;28;20460;-82